Archival Weather

Kayes/Dag-Dag

Kayes/Dag-Dag, Mali (GAKD)

Report from: Thursday, September 21, 2023 6:00 AM UTC
Current time: Friday, February 23, 2024 9:21 PM UTC

Current weather – Weather history – Daily summaries
Weather forecast

Present weatherThunderstorm
Temperature24.0°C (75.2°F)
Dew point22.0°C (71.6°F)
Winds 8 kts (4.1 m/s, 9.2 mph) Southwest (220°)
Visibility6.2 mi. (10 km)
Clouds Scattered clouds 2,000 ft. (610 m)
Few clouds with cumulonimbus 3,000 ft. (914 m)
Altimeter29.94 in.Hg (1014 mB)
Relative humidity89 %
Density altitude1,375 ft. (419 m)
Flight conditions Visual Meteorological Conditions
Raw dataGAKD 210600Z 22008KT 9999 TS SCT020 FEW030CB 24/22 Q1014
An error has occurred. This application may no longer respond until reloaded. Reload 🗙